Time;durP1;ratioP1;P1;durP2;ratioP2;P2;SDS_P1;SDS_P2;PMS_P1;PMS_P2;Temp;Humidity;BMP_temperature;BMP_pressure;BME280_temperature;BME280_humidity;BME280_pressure;Samples;Min_cycle;Max_cycle;Signal;HPM_P1;HPM_P2
2022/12/15 00:39:43;;;;;;;12.35;6.20;;;;;;;;;;5045141;28;20068;-67
2022/12/15 00:42:10;;;;;;;7.78;3.47;;;;;;;;;;5044011;28;20150;-67
2022/12/15 00:44:37;;;;;;;7.00;3.38;;;;;;;;;;5044580;28;20044;-67
2022/12/15 00:47:04;;;;;;;4.82;2.15;;;;;;;;;;5046644;28;20511;-67
2022/12/15 01:22:38;;;;;;;5.35;1.35;;;;;;;;;;5020369;28;20626;-67
2022/12/15 01:25:06;;;;;;;3.58;1.23;;;;;;;;;;5022987;28;20042;-68
2022/12/15 01:27:32;;;;;;;3.78;1.27;;;;;;;;;;5020923;28;20632;-68
2022/12/15 01:30:02;;;;;;;9.25;1.58;;;;;;;;;;5020440;28;20148;-68
2022/12/15 01:32:29;;;;;;;2.92;1.08;;;;;;;;;;5022104;28;20044;-68
2022/12/15 01:34:55;;;;;;;5.70;1.45;;;;;;;;;;5022553;28;20048;-68
2022/12/15 01:37:22;;;;;;;6.28;2.42;;;;;;;;;;5020028;28;20033;-68
2022/12/15 01:42:34;;;;;;;5.03;1.50;;;;;;;;;;5020557;28;20048;-68
2022/12/15 01:45:19;;;;;;;9.82;4.07;;;;;;;;;;5022519;28;20034;-68
2022/12/15 01:47:46;;;;;;;17.20;6.70;;;;;;;;;;5022765;28;20053;-68
2022/12/15 01:50:16;;;;;;;9.32;5.22;;;;;;;;;;5024010;28;20041;-68
2022/12/15 01:52:42;;;;;;;9.18;4.28;;;;;;;;;;5021178;28;20077;-67
2022/12/15 01:55:10;;;;;;;3.67;1.50;;;;;;;;;;5019650;28;20041;-68
2022/12/15 01:57:37;;;;;;;3.28;1.52;;;;;;;;;;5017336;28;20143;-68
2022/12/15 02:00:07;;;;;;;3.53;1.27;;;;;;;;;;5020165;28;20029;-68
2022/12/15 02:02:35;;;;;;;2.42;0.93;;;;;;;;;;5035705;28;20036;-68
2022/12/15 02:05:03;;;;;;;4.45;1.10;;;;;;;;;;5039311;28;20928;-67
2022/12/15 02:07:29;;;;;;;4.78;1.45;;;;;;;;;;5038921;28;20045;-66
2022/12/15 02:09:59;;;;;;;4.85;2.00;;;;;;;;;;5040188;28;20132;-67
2022/12/15 02:12:28;;;;;;;3.25;1.40;;;;;;;;;;5039503;28;20523;-67
2022/12/15 02:15:08;;;;;;;4.20;1.35;;;;;;;;;;5040058;28;20045;-67
2022/12/15 02:17:46;;;;;;;6.65;2.20;;;;;;;;;;5039140;28;20045;-68
2022/12/15 02:20:22;;;;;;;6.25;1.58;;;;;;;;;;5038889;28;20088;-68
2022/12/15 02:23:03;;;;;;;6.85;2.10;;;;;;;;;;5018900;28;20044;-68
2022/12/15 02:25:45;;;;;;;4.65;1.55;;;;;;;;;;5017180;28;20115;-68
2022/12/15 02:28:15;;;;;;;5.47;1.60;;;;;;;;;;5018659;28;20032;-69
2022/12/15 02:31:48;;;;;;;2.80;1.10;;;;;;;;;;5019647;28;20050;-67
2022/12/15 02:33:37;;;;;;;4.10;1.20;;;;;;;;;;5018331;28;20041;-68
2022/12/15 02:36:18;;;;;;;4.05;1.23;;;;;;;;;;5018874;28;20048;-67
2022/12/15 02:38:45;;;;;;;9.80;1.52;;;;;;;;;;5019723;28;20046;-63
2022/12/15 02:41:30;;;;;;;4.70;1.73;;;;;;;;;;5017235;28;20120;-68
2022/12/15 02:43:57;;;;;;;4.95;1.42;;;;;;;;;;5019175;28;20033;-67
2022/12/15 02:46:30;;;;;;;5.78;1.65;;;;;;;;;;5017861;28;20048;-67
2022/12/15 02:49:21;;;;;;;3.88;1.38;;;;;;;;;;5019759;28;20498;-67
2022/12/15 02:51:56;;;;;;;3.50;1.40;;;;;;;;;;5035636;28;20056;-66
2022/12/15 02:54:35;;;;;;;2.67;1.15;;;;;;;;;;5020047;28;20132;-67
2022/12/15 02:57:02;;;;;;;2.60;1.10;;;;;;;;;;5017661;28;20044;-66
2022/12/15 02:59:35;;;;;;;3.10;1.08;;;;;;;;;;5031634;28;20045;-68
2022/12/15 03:02:07;;;;;;;2.70;1.00;;;;;;;;;;5037247;28;20744;-68
2022/12/15 03:04:34;;;;;;;2.90;1.15;;;;;;;;;;5038160;28;20424;-67
2022/12/15 03:07:03;;;;;;;3.50;1.10;;;;;;;;;;5041531;28;20052;-68
2022/12/15 03:09:30;;;;;;;3.42;1.50;;;;;;;;;;5037783;28;20044;-67
2022/12/15 03:11:57;;;;;;;4.35;1.25;;;;;;;;;;5039738;28;20493;-66
2022/12/15 03:14:27;;;;;;;11.93;1.40;;;;;;;;;;5038090;28;20041;-67
2022/12/15 03:16:54;;;;;;;2.20;0.77;;;;;;;;;;5039651;28;20174;-68
2022/12/15 03:19:21;;;;;;;4.75;1.40;;;;;;;;;;5031044;28;20044;-67
2022/12/15 03:21:48;;;;;;;3.92;1.35;;;;;;;;;;5039562;28;20055;-67
2022/12/15 03:24:14;;;;;;;4.60;1.35;;;;;;;;;;5048244;28;20124;-67
2022/12/15 03:26:42;;;;;;;6.95;1.33;;;;;;;;;;5037572;28;20044;-69
2022/12/15 03:29:09;;;;;;;3.35;1.15;;;;;;;;;;5039213;28;20425;-68
2022/12/15 03:31:36;;;;;;;4.25;1.75;;;;;;;;;;5036851;28;20402;-69
2022/12/15 03:34:02;;;;;;;4.50;1.80;;;;;;;;;;5037898;28;21525;-68
2022/12/15 03:36:29;;;;;;;12.90;1.95;;;;;;;;;;5028480;28;20133;-69
2022/12/15 03:38:56;;;;;;;6.97;1.85;;;;;;;;;;5068317;28;20067;-69
2022/12/15 03:41:22;;;;;;;3.72;1.20;;;;;;;;;;5038000;28;20060;-66
2022/12/15 03:43:49;;;;;;;9.07;1.42;;;;;;;;;;5037717;28;20127;-69
2022/12/15 03:46:16;;;;;;;13.35;1.40;;;;;;;;;;5036627;28;20045;-69
2022/12/15 03:48:42;;;;;;;4.70;1.40;;;;;;;;;;5036342;28;20059;-69
2022/12/15 03:51:09;;;;;;;4.28;2.15;;;;;;;;;;5037403;28;20576;-66
2022/12/15 03:53:36;;;;;;;7.30;2.30;;;;;;;;;;5036886;28;20032;-66
2022/12/15 03:56:02;;;;;;;4.10;1.58;;;;;;;;;;5036937;28;20040;-68
2022/12/15 03:58:29;;;;;;;3.15;1.38;;;;;;;;;;5035002;28;20068;-69
2022/12/15 04:00:56;;;;;;;5.03;2.30;;;;;;;;;;5036528;28;20037;-68
2022/12/15 04:03:23;;;;;;;9.63;2.30;;;;;;;;;;5040537;28;20037;-69
2022/12/15 04:05:49;;;;;;;6.60;2.05;;;;;;;;;;5042490;28;20059;-69
2022/12/15 04:08:16;;;;;;;4.32;2.00;;;;;;;;;;5043146;28;20037;-66
2022/12/15 04:10:43;;;;;;;8.80;1.45;;;;;;;;;;5058501;28;20037;-65
2022/12/15 04:13:10;;;;;;;3.95;1.60;;;;;;;;;;5041544;28;20347;-67
2022/12/15 04:15:38;;;;;;;4.68;1.50;;;;;;;;;;5041521;28;20052;-68
2022/12/15 04:18:09;;;;;;;3.13;1.30;;;;;;;;;;5041507;28;20048;-68
2022/12/15 04:20:55;;;;;;;3.70;1.67;;;;;;;;;;5037892;28;20121;-69
2022/12/15 04:23:22;;;;;;;4.13;1.73;;;;;;;;;;5037327;28;20037;-68
2022/12/15 05:32:09;;;;;;;4.78;1.92;;;;;;;;;;5020255;28;20505;-69
2022/12/15 05:34:36;;;;;;;9.43;2.00;;;;;;;;;;5040969;28;20037;-69
2022/12/15 05:37:06;;;;;;;5.95;1.75;;;;;;;;;;5044275;28;20036;-66
2022/12/15 05:39:33;;;;;;;3.92;1.77;;;;;;;;;;5042450;28;20047;-70
2022/12/15 05:41:59;;;;;;;6.43;2.20;;;;;;;;;;5054663;28;20041;-67
2022/12/15 05:44:26;;;;;;;4.35;1.95;;;;;;;;;;5076209;28;20038;-66
2022/12/15 05:46:53;;;;;;;8.52;2.78;;;;;;;;;;5080708;28;20046;-66
2022/12/15 05:49:22;;;;;;;5.60;3.10;;;;;;;;;;5057715;28;20033;-66
2022/12/15 05:51:48;;;;;;;4.60;2.08;;;;;;;;;;5054661;28;20041;-66
2022/12/15 05:54:17;;;;;;;4.55;2.28;;;;;;;;;;5057731;28;20033;-66
2022/12/15 05:56:44;;;;;;;14.48;2.25;;;;;;;;;;5020062;28;20170;-66
2022/12/15 05:59:11;;;;;;;4.53;2.13;;;;;;;;;;5077703;28;20146;-67
2022/12/15 06:01:37;;;;;;;5.10;2.42;;;;;;;;;;5073022;28;21038;-67
2022/12/15 06:04:05;;;;;;;4.45;2.25;;;;;;;;;;5074837;28;20515;-66
2022/12/15 06:06:32;;;;;;;6.10;2.33;;;;;;;;;;5056437;28;20097;-67
2022/12/15 06:08:58;;;;;;;4.05;2.40;;;;;;;;;;5065247;28;20573;-67
2022/12/15 06:11:25;;;;;;;5.07;2.17;;;;;;;;;;5072080;28;20054;-67
2022/12/15 06:13:53;;;;;;;7.25;2.47;;;;;;;;;;5073148;28;20170;-67
2022/12/15 06:16:21;;;;;;;6.32;1.92;;;;;;;;;;5072664;28;20081;-66
2022/12/15 06:18:52;;;;;;;5.90;2.38;;;;;;;;;;5073736;28;20496;-66
2022/12/15 06:21:38;;;;;;;6.38;2.22;;;;;;;;;;5041897;28;21741;-66
2022/12/15 06:24:05;;;;;;;4.53;1.80;;;;;;;;;;5030163;28;20148;-67
2022/12/15 06:26:35;;;;;;;2.88;1.63;;;;;;;;;;5029011;28;20060;-67
2022/12/15 06:29:03;;;;;;;12.85;2.25;;;;;;;;;;5017796;28;20241;-68
2022/12/15 06:31:30;;;;;;;5.72;2.17;;;;;;;;;;5023378;28;20079;-66
2022/12/15 06:33:57;;;;;;;18.60;2.67;;;;;;;;;;5034734;28;20118;-66
2022/12/15 06:36:24;;;;;;;4.00;2.05;;;;;;;;;;5035270;28;20944;-66
2022/12/15 06:38:51;;;;;;;10.85;2.65;;;;;;;;;;5032186;28;20747;-66
2022/12/15 06:41:19;;;;;;;5.05;2.30;;;;;;;;;;5019290;28;20083;-68
2022/12/15 06:43:49;;;;;;;14.57;3.17;;;;;;;;;;5026191;28;20067;-66
2022/12/15 06:46:16;;;;;;;7.80;2.40;;;;;;;;;;5031748;28;20029;-65
2022/12/15 06:48:44;;;;;;;9.75;2.08;;;;;;;;;;5016648;28;20069;-66
2022/12/15 06:51:12;;;;;;;3.17;1.58;;;;;;;;;;5012799;28;20084;-65
2022/12/15 06:53:40;;;;;;;4.15;1.77;;;;;;;;;;5018714;28;20046;-65
2022/12/15 06:56:08;;;;;;;7.15;2.40;;;;;;;;;;5019700;28;20644;-66
2022/12/15 06:58:35;;;;;;;5.68;1.65;;;;;;;;;;5019130;28;20510;-65
2022/12/15 07:01:11;;;;;;;5.97;1.60;;;;;;;;;;5016162;28;20041;-66
2022/12/15 07:03:37;;;;;;;3.42;1.52;;;;;;;;;;5018464;28;20096;-66
2022/12/15 07:06:07;;;;;;;9.75;1.95;;;;;;;;;;5016756;28;20933;-66
2022/12/15 07:08:34;;;;;;;4.53;2.10;;;;;;;;;;5044038;28;20045;-67
2022/12/15 07:11:03;;;;;;;2.45;1.25;;;;;;;;;;5032675;28;21351;-69
2022/12/15 07:13:29;;;;;;;3.72;1.77;;;;;;;;;;5027115;28;20037;-67
2022/12/15 07:16:00;;;;;;;3.83;1.60;;;;;;;;;;5019487;28;20045;-67
2022/12/15 07:18:26;;;;;;;7.00;2.30;;;;;;;;;;5017531;28;20195;-67
2022/12/15 07:20:53;;;;;;;4.25;1.55;;;;;;;;;;5018949;28;20685;-67
2022/12/15 07:23:19;;;;;;;3.25;1.40;;;;;;;;;;5017336;28;20116;-67
2022/12/15 07:25:46;;;;;;;7.13;2.25;;;;;;;;;;5018252;28;20082;-66
2022/12/15 07:28:13;;;;;;;3.13;1.50;;;;;;;;;;5017793;28;20037;-65
2022/12/15 07:30:39;;;;;;;4.05;1.52;;;;;;;;;;5016129;28;20033;-67
2022/12/15 07:33:06;;;;;;;3.90;1.67;;;;;;;;;;5027257;28;20063;-67
2022/12/15 07:35:33;;;;;;;4.05;1.60;;;;;;;;;;5017328;28;20080;-67
2022/12/15 07:37:59;;;;;;;5.65;1.75;;;;;;;;;;5016123;28;20056;-67
2022/12/15 07:40:26;;;;;;;3.00;1.27;;;;;;;;;;5065751;28;20028;-66
2022/12/15 07:42:53;;;;;;;4.18;1.35;;;;;;;;;;5037626;28;20444;-65
2022/12/15 07:45:20;;;;;;;4.63;1.85;;;;;;;;;;5034675;28;20140;-67
2022/12/15 07:47:49;;;;;;;7.53;1.73;;;;;;;;;;5038041;28;20037;-66
2022/12/15 07:50:15;;;;;;;4.10;1.77;;;;;;;;;;5051625;28;20559;-67
2022/12/15 07:52:42;;;;;;;6.20;2.33;;;;;;;;;;5049936;28;20037;-67
2022/12/15 07:55:09;;;;;;;3.97;1.80;;;;;;;;;;5038909;28;20134;-66
2022/12/15 07:57:35;;;;;;;3.63;1.40;;;;;;;;;;5052574;28;20029;-69
2022/12/15 08:00:04;;;;;;;4.95;2.13;;;;;;;;;;5036603;28;20035;-66
2022/12/15 08:02:31;;;;;;;5.10;2.13;;;;;;;;;;5049122;28;20747;-67
2022/12/15 08:04:58;;;;;;;7.13;2.45;;;;;;;;;;5049631;28;20759;-66
2022/12/15 08:07:24;;;;;;;6.18;2.75;;;;;;;;;;5065306;28;20037;-66
2022/12/15 08:09:52;;;;;;;5.85;2.65;;;;;;;;;;5037285;28;20037;-66
2022/12/15 08:12:19;;;;;;;5.20;2.38;;;;;;;;;;5038229;28;20045;-67
2022/12/15 08:14:46;;;;;;;6.53;2.65;;;;;;;;;;5038334;28;20095;-68
2022/12/15 08:17:12;;;;;;;8.23;2.80;;;;;;;;;;5039792;28;20127;-65
2022/12/15 08:19:39;;;;;;;10.23;3.65;;;;;;;;;;5039533;28;20072;-66
2022/12/15 08:22:05;;;;;;;7.97;2.85;;;;;;;;;;5038507;28;20185;-68
2022/12/15 08:24:32;;;;;;;8.02;2.67;;;;;;;;;;5041713;28;20068;-67
2022/12/15 08:26:59;;;;;;;5.47;2.70;;;;;;;;;;5040013;28;20056;-67
2022/12/15 08:29:25;;;;;;;7.28;2.92;;;;;;;;;;5040991;28;20041;-67
2022/12/15 08:31:52;;;;;;;5.00;2.38;;;;;;;;;;5041692;28;20044;-67
2022/12/15 08:34:19;;;;;;;7.70;2.70;;;;;;;;;;5037415;28;20037;-66
2022/12/15 08:36:46;;;;;;;10.65;2.47;;;;;;;;;;5037045;28;20116;-66
2022/12/15 08:39:13;;;;;;;5.88;2.70;;;;;;;;;;5038513;28;20051;-69
2022/12/15 08:41:40;;;;;;;5.75;2.00;;;;;;;;;;5037333;28;20037;-66
2022/12/15 08:44:06;;;;;;;5.43;2.67;;;;;;;;;;5037588;28;20106;-66
2022/12/15 08:46:34;;;;;;;7.75;2.65;;;;;;;;;;5037426;28;20041;-66
2022/12/15 08:49:01;;;;;;;4.93;2.25;;;;;;;;;;5039796;28;20148;-66
2022/12/15 08:51:29;;;;;;;9.85;2.40;;;;;;;;;;5040635;28;20047;-66
2022/12/15 08:53:56;;;;;;;6.70;2.75;;;;;;;;;;5041236;28;20114;-65
2022/12/15 08:56:24;;;;;;;8.65;2.83;;;;;;;;;;5039653;28;20037;-65
2022/12/15 08:58:54;;;;;;;5.53;2.58;;;;;;;;;;5056809;28;20498;-66
2022/12/15 09:01:21;;;;;;;5.47;2.05;;;;;;;;;;5056658;28;20575;-65
2022/12/15 09:03:48;;;;;;;11.25;3.53;;;;;;;;;;5057301;28;20044;-66
2022/12/15 09:06:16;;;;;;;4.13;2.17;;;;;;;;;;5040470;28;20060;-66
2022/12/15 09:08:43;;;;;;;5.22;2.40;;;;;;;;;;5029110;28;20041;-66
2022/12/15 09:11:10;;;;;;;5.72;2.53;;;;;;;;;;5020661;28;20040;-65
2022/12/15 09:13:36;;;;;;;6.65;2.30;;;;;;;;;;5019683;28;20045;-65
2022/12/15 09:16:04;;;;;;;4.95;2.47;;;;;;;;;;5036022;28;20037;-66
2022/12/15 09:18:32;;;;;;;7.00;2.25;;;;;;;;;;5020524;28;20046;-66
2022/12/15 09:21:03;;;;;;;4.63;2.47;;;;;;;;;;5025886;28;20144;-66
2022/12/15 09:23:30;;;;;;;4.70;2.15;;;;;;;;;;5020539;28;20511;-67
2022/12/15 09:26:01;;;;;;;5.80;2.08;;;;;;;;;;5020682;28;20052;-68
2022/12/15 09:28:33;;;;;;;8.52;2.30;;;;;;;;;;5026162;28;20135;-66
2022/12/15 09:31:04;;;;;;;5.85;2.00;;;;;;;;;;5020138;28;20064;-67
2022/12/15 09:33:31;;;;;;;17.85;2.53;;;;;;;;;;5034816;28;20072;-67
2022/12/15 09:35:58;;;;;;;5.97;2.22;;;;;;;;;;5019700;28;20040;-67
2022/12/15 09:38:25;;;;;;;5.40;1.85;;;;;;;;;;5019290;28;20045;-67
2022/12/15 09:40:52;;;;;;;6.20;2.28;;;;;;;;;;5020274;28;20033;-67
2022/12/15 09:43:20;;;;;;;8.48;2.45;;;;;;;;;;5019263;28;20357;-68
2022/12/15 09:46:13;;;;;;;5.78;2.55;;;;;;;;;;5020070;28;20041;-67
2022/12/15 09:48:41;;;;;;;3.33;1.75;;;;;;;;;;5009175;28;20037;-67
2022/12/15 09:51:14;;;;;;;20.08;3.15;;;;;;;;;;5020054;28;20025;-67
2022/12/15 09:53:40;;;;;;;6.13;2.27;;;;;;;;;;5018451;28;20128;-66
2022/12/15 09:56:11;;;;;;;3.80;1.95;;;;;;;;;;5051882;28;20282;-67
2022/12/15 09:58:41;;;;;;;7.05;2.28;;;;;;;;;;5019244;28;20562;-66
2022/12/15 10:01:28;;;;;;;5.32;2.25;;;;;;;;;;5052711;28;20556;-66
2022/12/15 10:03:54;;;;;;;3.92;1.90;;;;;;;;;;5033783;28;20488;-66
2022/12/15 10:06:25;;;;;;;4.68;2.28;;;;;;;;;;5018720;28;20065;-66
2022/12/15 10:09:01;;;;;;;9.75;2.80;;;;;;;;;;5018747;28;20051;-66
2022/12/15 10:11:28;;;;;;;5.28;2.33;;;;;;;;;;5019731;28;21801;-67
2022/12/15 10:14:05;;;;;;;4.45;2.10;;;;;;;;;;5020198;28;20130;-66
2022/12/15 10:16:40;;;;;;;5.53;2.08;;;;;;;;;;5018813;28;20037;-67
2022/12/15 10:19:17;;;;;;;8.15;2.15;;;;;;;;;;5018868;28;20037;-67
2022/12/15 10:21:44;;;;;;;5.03;2.50;;;;;;;;;;5020062;28;20041;-66
2022/12/15 10:24:14;;;;;;;3.80;2.33;;;;;;;;;;5019161;28;20065;-67
2022/12/15 10:26:41;;;;;;;4.05;2.25;;;;;;;;;;5019334;28;21728;-67
2022/12/15 10:29:11;;;;;;;5.20;2.20;;;;;;;;;;5019169;28;20676;-67
2022/12/15 10:31:40;;;;;;;4.57;2.17;;;;;;;;;;5033572;28;20064;-65
2022/12/15 10:34:17;;;;;;;6.50;1.45;;;;;;;;;;5030630;28;20498;-68
2022/12/15 10:36:49;;;;;;;4.63;1.98;;;;;;;;;;5019318;28;20033;-66
2022/12/15 10:39:16;;;;;;;4.77;2.23;;;;;;;;;;5020665;28;20517;-67
2022/12/15 10:41:43;;;;;;;6.05;2.67;;;;;;;;;;5017976;28;20309;-68
2022/12/15 10:44:33;;;;;;;4.18;2.00;;;;;;;;;;5019457;28;20041;-67
2022/12/15 10:47:08;;;;;;;3.50;1.67;;;;;;;;;;5015513;28;20038;-65
2022/12/15 10:49:35;;;;;;;4.07;2.08;;;;;;;;;;5018556;28;20068;-67
2022/12/15 10:52:01;;;;;;;7.75;3.47;;;;;;;;;;5020191;28;20055;-66
2022/12/15 10:54:47;;;;;;;4.28;2.30;;;;;;;;;;5021890;28;20041;-66
2022/12/15 10:57:17;;;;;;;7.28;2.85;;;;;;;;;;5019569;28;20062;-66
2022/12/15 10:59:43;;;;;;;4.20;1.85;;;;;;;;;;5004275;28;20069;-66
2022/12/15 11:02:22;;;;;;;8.43;2.15;;;;;;;;;;5020111;28;20328;-65
2022/12/15 11:05:07;;;;;;;13.55;2.10;;;;;;;;;;5021061;28;20037;-67
2022/12/15 11:07:41;;;;;;;4.20;1.95;;;;;;;;;;5019033;28;20500;-66
2022/12/15 11:10:15;;;;;;;3.72;1.85;;;;;;;;;;5020239;28;20073;-66
2022/12/15 11:12:51;;;;;;;3.47;1.63;;;;;;;;;;5020161;28;20091;-66
2022/12/15 11:15:24;;;;;;;3.55;1.55;;;;;;;;;;5037135;28;20052;-66
2022/12/15 11:17:58;;;;;;;2.65;1.38;;;;;;;;;;5019757;28;20045;-66
2022/12/15 11:20:30;;;;;;;5.47;2.47;;;;;;;;;;5019082;28;20422;-66
2022/12/15 11:23:07;;;;;;;4.53;1.33;;;;;;;;;;5019394;28;20523;-66
2022/12/15 11:25:36;;;;;;;5.15;2.17;;;;;;;;;;5018761;28;20510;-67
2022/12/15 11:28:06;;;;;;;10.30;1.80;;;;;;;;;;5018652;28;20041;-67
2022/12/15 11:30:38;;;;;;;5.47;1.95;;;;;;;;;;5016632;28;20091;-67
2022/12/15 11:33:05;;;;;;;7.45;1.48;;;;;;;;;;5018416;28;20033;-67
2022/12/15 11:35:38;;;;;;;3.65;1.52;;;;;;;;;;5019188;28;20102;-67
2022/12/15 11:38:11;;;;;;;3.30;1.53;;;;;;;;;;5018244;28;20790;-67
2022/12/15 11:40:42;;;;;;;4.20;1.40;;;;;;;;;;5018500;28;20278;-67
2022/12/15 11:43:14;;;;;;;3.67;1.98;;;;;;;;;;5020416;28;20578;-67
2022/12/15 11:45:41;;;;;;;2.50;1.27;;;;;;;;;;5014518;28;20041;-66
2022/12/15 11:48:11;;;;;;;7.07;2.13;;;;;;;;;;5045691;28;20275;-66
2022/12/15 11:50:38;;;;;;;3.67;1.23;;;;;;;;;;5017398;28;20037;-65
2022/12/15 11:53:07;;;;;;;3.00;1.52;;;;;;;;;;5017358;28;20483;-65
2022/12/15 11:55:34;;;;;;;5.20;2.53;;;;;;;;;;5017279;28;20046;-65
2022/12/15 11:58:20;;;;;;;4.95;2.05;;;;;;;;;;5017165;28;20493;-67
2022/12/15 12:00:54;;;;;;;5.53;2.53;;;;;;;;;;5061101;28;20063;-66
2022/12/15 12:03:27;;;;;;;3.92;1.95;;;;;;;;;;5037936;28;20494;-67
2022/12/15 12:06:00;;;;;;;4.15;1.83;;;;;;;;;;5038893;28;20041;-67
2022/12/15 12:08:35;;;;;;;2.70;1.30;;;;;;;;;;5036253;28;20114;-66
2022/12/15 12:11:14;;;;;;;2.88;1.35;;;;;;;;;;5037740;28;20096;-67
2022/12/15 12:13:46;;;;;;;2.45;0.93;;;;;;;;;;5035677;28;20033;-66
2022/12/15 12:16:31;;;;;;;2.95;1.30;;;;;;;;;;5038700;28;20393;-68
2022/12/15 12:19:02;;;;;;;3.83;1.15;;;;;;;;;;5036622;28;20405;-68
2022/12/15 12:21:40;;;;;;;5.90;1.45;;;;;;;;;;5037223;28;20049;-68
2022/12/15 12:24:13;;;;;;;2.47;1.23;;;;;;;;;;5041871;28;20139;-67
2022/12/15 12:26:43;;;;;;;3.90;1.02;;;;;;;;;;5052114;28;20052;-67
2022/12/15 12:29:35;;;;;;;4.55;1.60;;;;;;;;;;5065922;28;20055;-66
2022/12/15 12:32:04;;;;;;;2.28;0.90;;;;;;;;;;5066006;28;21895;-66
2022/12/15 12:34:31;;;;;;;2.90;1.30;;;;;;;;;;5065608;28;20143;-66
2022/12/15 12:37:04;;;;;;;4.75;1.80;;;;;;;;;;5064246;28;20571;-66
2022/12/15 12:39:31;;;;;;;3.55;1.48;;;;;;;;;;5044360;28;20194;-66
2022/12/15 12:42:03;;;;;;;3.20;1.20;;;;;;;;;;5046276;28;20583;-67
2022/12/15 12:44:39;;;;;;;3.97;1.30;;;;;;;;;;5028270;28;20115;-65
2022/12/15 12:47:13;;;;;;;3.55;1.40;;;;;;;;;;5051827;28;20397;-68
2022/12/15 12:49:44;;;;;;;3.83;1.23;;;;;;;;;;5032068;28;20041;-67
2022/12/15 12:52:42;;;;;;;3.97;1.50;;;;;;;;;;5045542;28;20040;-67
2022/12/15 12:55:12;;;;;;;3.35;1.15;;;;;;;;;;5045117;28;20127;-68
2022/12/15 12:57:42;;;;;;;5.00;1.38;;;;;;;;;;5062166;28;20063;-66
2022/12/15 13:00:17;;;;;;;9.63;1.50;;;;;;;;;;5030963;28;20047;-66
2022/12/15 13:02:46;;;;;;;3.45;1.30;;;;;;;;;;5043601;28;21056;-65
2022/12/15 13:05:30;;;;;;;5.60;1.67;;;;;;;;;;5031426;28;20044;-67
2022/12/15 13:07:56;;;;;;;;;;;;;;;;;;5022377;28;20394;-68
2022/12/15 13:10:24;;;;;;;2.25;1.10;;;;;;;;;;5022362;28;20036;-66
2022/12/15 13:12:52;;;;;;;2.75;1.10;;;;;;;;;;5020149;28;20494;-66
2022/12/15 13:15:30;;;;;;;3.80;1.25;;;;;;;;;;5024398;28;20042;-66
2022/12/15 13:18:15;;;;;;;3.05;1.25;;;;;;;;;;5049087;28;20074;-67
2022/12/15 13:20:42;;;;;;;4.28;1.95;;;;;;;;;;5068834;28;20503;-67
2022/12/15 13:23:24;;;;;;;5.30;2.30;;;;;;;;;;5057398;28;20100;-64
2022/12/15 13:25:53;;;;;;;5.38;2.30;;;;;;;;;;5070397;28;20045;-68
2022/12/15 13:28:27;;;;;;;4.40;1.98;;;;;;;;;;5070721;28;20045;-68
2022/12/15 13:31:12;;;;;;;4.82;2.17;;;;;;;;;;5071050;28;20055;-68
2022/12/15 13:33:51;;;;;;;5.30;1.75;;;;;;;;;;5070667;28;20040;-68
2022/12/15 13:36:38;;;;;;;7.60;1.65;;;;;;;;;;5070957;28;20313;-67
2022/12/15 13:39:11;;;;;;;3.72;1.67;;;;;;;;;;5085803;28;20043;-68
2022/12/15 13:41:58;;;;;;;3.70;1.40;;;;;;;;;;5068358;28;20040;-68
2022/12/15 13:44:25;;;;;;;3.28;1.63;;;;;;;;;;5028469;28;20592;-66
2022/12/15 13:46:53;;;;;;;14.48;1.50;;;;;;;;;;5070666;28;20543;-70
2022/12/15 13:49:27;;;;;;;3.47;1.13;;;;;;;;;;5044209;28;20052;-68
2022/12/15 13:51:59;;;;;;;1.85;0.98;;;;;;;;;;5019824;28;20037;-66
2022/12/15 13:54:31;;;;;;;2.35;1.00;;;;;;;;;;5018662;28;20069;-67
2022/12/15 13:57:06;;;;;;;3.05;0.98;;;;;;;;;;5017598;28;20048;-67
2022/12/15 13:59:33;;;;;;;2.47;1.08;;;;;;;;;;5017622;28;20056;-67
2022/12/15 14:01:59;;;;;;;2.28;0.98;;;;;;;;;;5019490;28;20048;-67
2022/12/15 14:04:26;;;;;;;3.45;1.30;;;;;;;;;;5017339;28;20135;-68
2022/12/15 14:06:54;;;;;;;1.98;0.90;;;;;;;;;;5024112;28;20367;-67
2022/12/15 14:09:24;;;;;;;5.25;1.35;;;;;;;;;;5015707;28;20037;-66
2022/12/15 14:11:51;;;;;;;3.45;1.05;;;;;;;;;;5019063;28;20490;-68
2022/12/15 14:14:23;;;;;;;3.00;1.20;;;;;;;;;;5018638;28;20506;-66
2022/12/15 14:16:55;;;;;;;4.65;1.50;;;;;;;;;;5018907;28;20080;-64
2022/12/15 14:19:22;;;;;;;2.00;0.70;;;;;;;;;;5018378;28;20575;-63
2022/12/15 14:21:56;;;;;;;2.67;1.05;;;;;;;;;;5020218;28;20167;-65
2022/12/15 14:24:25;;;;;;;1.90;0.70;;;;;;;;;;5018142;28;20333;-66
2022/12/15 14:26:52;;;;;;;0.98;0.50;;;;;;;;;;5014673;28;20053;-67
2022/12/15 14:29:18;;;;;;;1.80;0.80;;;;;;;;;;5018709;28;20401;-68
2022/12/15 14:31:50;;;;;;;3.25;1.35;;;;;;;;;;5019859;28;20046;-67
2022/12/15 14:34:33;;;;;;;6.90;1.58;;;;;;;;;;5015565;28;20041;-68
2022/12/15 14:37:01;;;;;;;3.78;1.23;;;;;;;;;;5027951;28;20046;-67
2022/12/15 14:39:41;;;;;;;4.30;1.50;;;;;;;;;;5017063;28;20045;-67
2022/12/15 14:42:08;;;;;;;3.17;1.25;;;;;;;;;;5019738;28;20061;-66
2022/12/15 14:44:38;;;;;;;6.18;1.42;;;;;;;;;;5049456;28;20740;-68
2022/12/15 14:47:06;;;;;;;3.47;1.23;;;;;;;;;;5020562;28;20160;-65
2022/12/15 14:49:37;;;;;;;4.82;1.30;;;;;;;;;;5020107;28;20465;-68
2022/12/15 14:52:06;;;;;;;3.00;1.00;;;;;;;;;;5020328;28;20055;-67
2022/12/15 14:54:36;;;;;;;2.10;0.70;;;;;;;;;;5020114;28;20041;-67
2022/12/15 14:57:13;;;;;;;3.65;1.10;;;;;;;;;;5037881;28;20092;-68
2022/12/15 14:59:40;;;;;;;2.47;0.90;;;;;;;;;;5018012;28;20076;-67
2022/12/15 15:02:14;;;;;;;3.25;0.93;;;;;;;;;;5023272;28;20045;-68
2022/12/15 15:04:41;;;;;;;4.35;1.20;;;;;;;;;;5053944;28;20060;-69
2022/12/15 15:07:28;;;;;;;3.10;1.05;;;;;;;;;;5022489;28;20049;-68
2022/12/15 15:09:55;;;;;;;5.00;1.02;;;;;;;;;;5018557;28;20043;-67
2022/12/15 15:12:23;;;;;;;2.40;0.93;;;;;;;;;;5056044;28;20040;-68
2022/12/15 15:14:53;;;;;;;3.35;0.80;;;;;;;;;;5053280;28;20092;-68
2022/12/15 15:17:22;;;;;;;3.50;1.00;;;;;;;;;;5047237;28;20060;-68
2022/12/15 15:19:49;;;;;;;1.55;0.60;;;;;;;;;;5046166;28;20052;-67
2022/12/15 15:22:25;;;;;;;3.42;0.80;;;;;;;;;;5054995;28;20047;-67
2022/12/15 15:24:52;;;;;;;1.50;0.60;;;;;;;;;;5056107;28;20041;-67
2022/12/15 15:27:38;;;;;;;2.28;0.70;;;;;;;;;;5045712;28;20451;-67
2022/12/15 15:30:16;;;;;;;2.67;1.00;;;;;;;;;;5055635;28;20040;-68
2022/12/15 15:33:09;;;;;;;2.83;0.80;;;;;;;;;;5054250;28;20046;-67
2022/12/15 15:35:36;;;;;;;3.05;0.75;;;;;;;;;;5051882;28;20040;-66
2022/12/15 15:38:22;;;;;;;1.05;0.50;;;;;;;;;;5055822;28;20059;-67
2022/12/15 15:40:53;;;;;;;1.58;0.57;;;;;;;;;;5055086;28;20064;-67
2022/12/15 15:43:21;;;;;;;1.73;0.73;;;;;;;;;;5055432;28;20028;-67
2022/12/15 15:45:48;;;;;;;1.92;0.75;;;;;;;;;;5057459;28;20897;-67
2022/12/15 15:48:25;;;;;;;2.15;0.80;;;;;;;;;;5032519;28;20053;-67
2022/12/15 15:50:52;;;;;;;1.83;0.60;;;;;;;;;;5019418;28;20053;-67
2022/12/15 15:53:20;;;;;;;1.02;0.40;;;;;;;;;;5017929;28;20049;-66
2022/12/15 15:55:49;;;;;;;2.35;0.70;;;;;;;;;;5019096;28;20037;-66
2022/12/15 15:58:16;;;;;;;2.83;0.80;;;;;;;;;;5022222;28;20048;-66
2022/12/15 16:00:42;;;;;;;2.42;0.77;;;;;;;;;;5023413;28;20948;-66
2022/12/15 16:03:09;;;;;;;3.53;0.90;;;;;;;;;;5022548;28;20061;-66
2022/12/15 16:05:36;;;;;;;3.03;0.70;;;;;;;;;;5021613;28;20037;-66
2022/12/15 16:08:04;;;;;;;2.60;0.80;;;;;;;;;;5023914;28;20036;-66
2022/12/15 16:10:30;;;;;;;2.05;0.70;;;;;;;;;;5021692;28;20041;-66
2022/12/15 16:12:59;;;;;;;7.78;0.90;;;;;;;;;;5020709;28;20029;-67
2022/12/15 16:15:27;;;;;;;2.42;0.80;;;;;;;;;;5024013;28;20042;-67
2022/12/15 16:17:54;;;;;;;2.17;1.00;;;;;;;;;;5023741;28;20125;-67
2022/12/15 16:20:22;;;;;;;2.55;0.68;;;;;;;;;;5021418;28;20037;-66
2022/12/15 16:22:50;;;;;;;2.60;0.98;;;;;;;;;;5021914;28;20034;-66
2022/12/15 16:25:23;;;;;;;1.83;0.63;;;;;;;;;;5055713;28;20044;-67
2022/12/15 16:27:50;;;;;;;1.93;0.70;;;;;;;;;;5031276;28;20494;-67
2022/12/15 16:30:22;;;;;;;2.70;0.68;;;;;;;;;;5022063;28;20501;-67
2022/12/15 16:32:49;;;;;;;2.53;0.88;;;;;;;;;;5020695;28;20048;-67
2022/12/15 16:35:16;;;;;;;1.85;0.60;;;;;;;;;;5021937;28;20037;-67
2022/12/15 16:37:46;;;;;;;1.90;0.70;;;;;;;;;;5021734;28;20053;-65
2022/12/15 16:40:18;;;;;;;1.77;0.60;;;;;;;;;;5020624;28;20575;-67
2022/12/15 16:42:51;;;;;;;2.05;0.73;;;;;;;;;;5031432;28;20482;-67
2022/12/15 16:45:18;;;;;;;;;;;;;;;;;;5023403;28;20108;-67
2022/12/15 16:47:45;;;;;;;2.53;0.70;;;;;;;;;;5019969;28;19917;-67
2022/12/15 16:50:15;;;;;;;1.38;0.60;;;;;;;;;;5021019;28;20065;-67
2022/12/15 16:52:43;;;;;;;1.88;0.68;;;;;;;;;;5020323;28;20766;-67
2022/12/15 16:55:17;;;;;;;1.17;0.50;;;;;;;;;;5022084;28;22135;-67
2022/12/15 16:57:43;;;;;;;1.92;0.70;;;;;;;;;;5019625;28;20041;-67
2022/12/15 17:00:18;;;;;;;2.13;0.70;;;;;;;;;;5021278;28;20192;-67
2022/12/15 17:02:45;;;;;;;1.63;0.57;;;;;;;;;;5020299;28;20069;-67
2022/12/15 17:05:11;;;;;;;0.82;0.45;;;;;;;;;;5021989;28;20093;-67
2022/12/15 17:07:38;;;;;;;2.72;0.93;;;;;;;;;;5020712;28;20045;-67
2022/12/15 17:10:05;;;;;;;1.58;0.52;;;;;;;;;;5019187;28;20034;-67
2022/12/15 17:12:32;;;;;;;2.22;0.73;;;;;;;;;;5020233;28;20461;-66
2022/12/15 17:15:01;;;;;;;1.30;0.50;;;;;;;;;;5031840;28;20135;-67
2022/12/15 17:17:28;;;;;;;1.35;0.50;;;;;;;;;;5021030;28;20032;-67
2022/12/15 17:19:55;;;;;;;3.20;0.70;;;;;;;;;;5021310;28;20056;-68
2022/12/15 17:22:22;;;;;;;2.33;0.80;;;;;;;;;;5019618;28;20072;-65